createdAt,value
2022-11-21T00:00:06.834Z,0.90
2022-11-21T00:02:33.668Z,0.68
2022-11-21T00:05:00.004Z,1.08
2022-11-21T00:07:26.773Z,0.82
2022-11-21T00:09:53.247Z,0.80
2022-11-21T00:12:19.589Z,0.70
2022-11-21T00:14:46.012Z,0.75
2022-11-21T00:17:12.486Z,0.70
2022-11-21T00:19:39.905Z,0.95
2022-11-21T00:22:33.137Z,1.45
2022-11-21T00:24:59.535Z,1.00
2022-11-21T00:27:25.939Z,1.23
2022-11-21T00:29:55.222Z,1.00
2022-11-21T00:36:06.021Z,0.70
2022-11-21T00:42:01.229Z,0.70
2022-11-21T00:44:28.001Z,0.73
2022-11-21T00:46:54.539Z,0.80
2022-11-21T00:49:20.888Z,0.93
2022-11-21T00:51:47.233Z,0.88
2022-11-21T00:54:13.692Z,0.88
2022-11-21T00:56:40.097Z,1.00
2022-11-21T00:59:06.480Z,0.80
2022-11-21T01:01:32.855Z,0.75
2022-11-21T01:04:11.279Z,1.02
2022-11-21T01:06:40.055Z,1.02
2022-11-21T01:09:06.516Z,0.80
2022-11-21T01:11:42.336Z,1.00
2022-11-21T01:17:32.004Z,0.80
2022-11-21T01:19:58.423Z,0.90
2022-11-21T01:22:25.396Z,1.00
2022-11-21T01:28:16.361Z,0.90
2022-11-21T01:30:42.705Z,0.93
2022-11-21T01:33:09.084Z,1.02
2022-11-21T01:35:35.427Z,1.15
2022-11-21T01:38:01.785Z,0.80
2022-11-21T01:40:28.147Z,1.00
2022-11-21T01:42:58.364Z,1.23
2022-11-21T01:45:43.694Z,1.20
2022-11-21T01:48:11.932Z,1.17
2022-11-21T01:50:38.296Z,1.20
2022-11-21T01:53:04.817Z,1.20
2022-11-21T01:55:31.213Z,1.27
2022-11-21T01:58:02.997Z,1.10
2022-11-21T02:03:53.094Z,1.30
2022-11-21T02:06:19.799Z,1.10
2022-11-21T02:08:46.360Z,1.10
2022-11-21T02:11:31.307Z,1.20
2022-11-21T02:14:01.200Z,1.20
2022-11-21T02:16:28.097Z,1.60
2022-11-21T02:23:01.395Z,1.45
2022-11-21T02:25:32.390Z,1.38
2022-11-21T02:28:01.615Z,1.42
2022-11-21T02:30:46.853Z,1.40
2022-11-21T02:36:51.243Z,1.50
2022-11-21T02:42:59.262Z,1.52
2022-11-21T02:48:47.338Z,1.25
2022-11-21T02:51:13.698Z,1.33
2022-11-21T02:53:40.034Z,1.50
2022-11-21T02:56:06.464Z,1.80
2022-11-21T02:58:33.015Z,1.50
2022-11-21T03:00:59.460Z,1.38
2022-11-21T03:03:25.851Z,1.20
2022-11-21T03:05:52.201Z,1.27
2022-11-21T03:08:20.805Z,1.63
2022-11-21T03:10:47.233Z,1.23
2022-11-21T03:13:13.828Z,1.70
2022-11-21T03:15:40.156Z,1.27
2022-11-21T03:18:06.505Z,1.35
2022-11-21T03:20:34.566Z,1.30
2022-11-21T03:23:01.184Z,1.40
2022-11-21T03:25:27.559Z,1.50
2022-11-21T03:27:54.262Z,1.80
2022-11-21T03:30:21.638Z,1.23
2022-11-21T03:32:48.299Z,1.40
2022-11-21T03:35:15.099Z,1.40
2022-11-21T03:37:41.435Z,1.30
2022-11-21T03:40:08.193Z,1.38
2022-11-21T03:42:34.520Z,1.10
2022-11-21T03:45:00.845Z,1.35
2022-11-21T03:47:27.575Z,1.00
2022-11-21T03:49:54.028Z,1.55
2022-11-21T03:52:20.415Z,1.20
2022-11-21T03:54:46.764Z,1.30
2022-11-21T03:57:13.158Z,1.10
2022-11-21T03:59:39.517Z,1.10
2022-11-21T04:02:05.857Z,1.35
2022-11-21T04:04:32.256Z,1.20
2022-11-21T04:07:00.818Z,1.20
2022-11-21T04:09:27.231Z,1.17
2022-11-21T04:11:53.697Z,1.20
2022-11-21T04:14:20.050Z,1.13
2022-11-21T04:16:46.361Z,1.05
2022-11-21T04:19:12.714Z,1.30
2022-11-21T04:21:39.054Z,1.20
2022-11-21T04:24:05.716Z,1.10
2022-11-21T04:26:32.085Z,1.25
2022-11-21T04:28:58.481Z,1.20
2022-11-21T04:31:24.841Z,1.27
2022-11-21T04:33:51.233Z,1.10
2022-11-21T04:36:18.430Z,0.90
2022-11-21T04:38:44.819Z,1.17
2022-11-21T04:41:11.221Z,1.40
2022-11-21T04:43:37.590Z,1.70
2022-11-21T04:46:03.938Z,1.27
2022-11-21T04:48:33.469Z,1.15
2022-11-21T04:50:59.891Z,1.30
2022-11-21T04:53:26.381Z,1.40
2022-11-21T04:55:52.736Z,1.10
2022-11-21T04:58:19.088Z,1.10
2022-11-21T05:00:45.465Z,1.20
2022-11-21T05:03:11.827Z,1.00
2022-11-21T05:05:38.236Z,1.20
2022-11-21T05:08:04.842Z,1.02
2022-11-21T05:10:31.231Z,1.08
2022-11-21T05:13:21.268Z,0.82
2022-11-21T05:15:51.685Z,1.00
2022-11-21T05:18:19.817Z,1.13
2022-11-21T05:20:46.260Z,0.88
2022-11-21T05:23:12.642Z,0.88
2022-11-21T05:25:38.977Z,0.93
2022-11-21T05:28:06.684Z,1.02
2022-11-21T05:30:33.040Z,0.98
2022-11-21T05:32:59.370Z,0.98
2022-11-21T05:35:25.743Z,1.20
2022-11-21T05:37:58.586Z,1.02
2022-11-21T05:40:28.083Z,0.77
2022-11-21T05:43:12.826Z,1.05
2022-11-21T05:45:39.178Z,0.95
2022-11-21T05:48:10.198Z,1.05
2022-11-21T05:50:36.733Z,0.90
2022-11-21T05:53:06.367Z,0.90
2022-11-21T05:55:35.572Z,1.33
2022-11-21T05:58:01.994Z,0.90
2022-11-21T06:00:28.671Z,1.08
2022-11-21T06:03:13.627Z,1.20
2022-11-21T06:05:41.302Z,1.00
2022-11-21T06:08:07.649Z,1.08
2022-11-21T06:10:34.162Z,1.00
2022-11-21T06:13:03.395Z,1.10
2022-11-21T06:15:30.239Z,0.85
2022-11-21T06:17:56.616Z,0.95
2022-11-21T06:20:23.069Z,1.25
2022-11-21T06:22:49.481Z,1.35
2022-11-21T06:25:15.972Z,0.90
2022-11-21T06:27:42.428Z,1.02
2022-11-21T06:30:09.326Z,0.98
2022-11-21T06:32:37.744Z,1.05
2022-11-21T06:35:04.283Z,1.00
2022-11-21T06:37:30.674Z,1.00
2022-11-21T06:39:57.037Z,1.17
2022-11-21T06:42:25.261Z,1.10
2022-11-21T06:44:51.588Z,2.42
2022-11-21T06:47:17.960Z,1.10
2022-11-21T06:49:44.280Z,1.25
2022-11-21T06:52:10.753Z,1.13
2022-11-21T06:54:37.099Z,1.17
2022-11-21T06:57:03.511Z,1.10
2022-11-21T06:59:29.851Z,0.93
2022-11-21T07:01:56.210Z,0.98
2022-11-21T07:04:22.591Z,1.02
2022-11-21T07:06:48.981Z,1.10
2022-11-21T07:09:33.004Z,1.23
2022-11-21T07:12:20.229Z,1.10
2022-11-21T07:14:46.595Z,1.70
2022-11-21T07:17:13.320Z,0.95
2022-11-21T07:19:41.086Z,1.13
2022-11-21T07:22:08.546Z,0.90
2022-11-21T07:24:38.004Z,0.98
2022-11-21T07:27:04.372Z,1.10
2022-11-21T07:29:30.987Z,1.10
2022-11-21T07:31:57.469Z,1.10
2022-11-21T07:34:23.849Z,1.42
2022-11-21T07:36:50.221Z,1.17
2022-11-21T07:39:16.640Z,1.73
2022-11-21T07:41:43.049Z,1.05
2022-11-21T07:44:09.424Z,1.00
2022-11-21T07:46:35.847Z,7.10
2022-11-21T07:49:03.652Z,2.17
2022-11-21T07:51:30.405Z,1.30
2022-11-21T07:53:56.810Z,3.80
2022-11-21T07:56:26.338Z,2.50
2022-11-21T07:58:53.120Z,3.05
2022-11-21T08:01:19.822Z,4.32
2022-11-21T08:03:46.209Z,3.90
2022-11-21T08:06:12.724Z,10.45
2022-11-21T08:08:39.247Z,7.05
2022-11-21T08:11:06.131Z,8.35
2022-11-21T08:13:32.675Z,3.55
2022-11-21T08:15:59.102Z,1.50
2022-11-21T08:18:26.471Z,1.33
2022-11-21T08:20:52.845Z,1.27
2022-11-21T08:23:19.219Z,1.15
2022-11-21T08:25:45.569Z,1.42
2022-11-21T08:28:12.234Z,1.00
2022-11-21T08:30:39.064Z,1.83
2022-11-21T08:33:05.790Z,1.05
2022-11-21T08:35:32.272Z,6.57
2022-11-21T08:37:59.445Z,3.72
2022-11-21T08:40:28.449Z,1.70
2022-11-21T08:42:58.633Z,1.80
2022-11-21T08:45:26.049Z,3.63
2022-11-21T08:47:53.119Z,7.18
2022-11-21T08:50:19.632Z,4.05
2022-11-21T08:52:46.057Z,4.95
2022-11-21T08:55:12.763Z,3.10
2022-11-21T08:57:42.643Z,2.08
2022-11-21T09:00:09.875Z,1.20
2022-11-21T09:02:36.303Z,5.55
2022-11-21T09:05:02.641Z,3.88
2022-11-21T09:07:29.054Z,1.80
2022-11-21T09:09:55.437Z,2.70
2022-11-21T09:12:21.884Z,6.15
2022-11-21T09:15:09.848Z,11.05
2022-11-21T09:17:55.178Z,2.83
2022-11-21T09:20:21.573Z,4.47
2022-11-21T09:22:47.945Z,2.30
2022-11-21T09:25:14.518Z,4.75
2022-11-21T09:27:42.875Z,1.40
2022-11-21T09:30:09.396Z,2.78
2022-11-21T09:32:36.975Z,3.83
2022-11-21T09:35:03.655Z,1.40
2022-11-21T09:37:30.029Z,1.10
2022-11-21T09:39:56.417Z,8.98
2022-11-21T09:42:47.439Z,7.13
2022-11-21T09:47:48.849Z,3.38
2022-11-21T09:50:15.281Z,2.78
2022-11-21T09:52:53.715Z,3.55
2022-11-21T09:55:23.116Z,3.15
2022-11-21T09:57:49.771Z,2.83
2022-11-21T10:00:19.865Z,1.70
2022-11-21T10:02:47.046Z,0.90
2022-11-21T10:05:14.350Z,4.28
2022-11-21T10:07:42.403Z,3.85
2022-11-21T10:10:15.125Z,1.80
2022-11-21T10:12:50.663Z,1.63
2022-11-21T10:15:33.872Z,1.00
2022-11-21T10:18:18.669Z,0.80
2022-11-21T10:21:03.905Z,4.93
2022-11-21T10:23:33.314Z,2.50
2022-11-21T10:26:02.738Z,2.10
2022-11-21T10:28:32.126Z,2.80
2022-11-21T10:30:59.119Z,9.35
2022-11-21T10:33:33.534Z,1.10
2022-11-21T10:36:20.707Z,1.33
2022-11-21T10:38:50.167Z,1.70
2022-11-21T10:41:35.067Z,5.25
2022-11-21T10:44:28.170Z,2.45
2022-11-21T10:46:58.792Z,1.10
2022-11-21T10:49:33.630Z,3.72
2022-11-21T10:52:10.009Z,2.50
2022-11-21T10:54:56.332Z,10.93
2022-11-21T10:57:22.680Z,3.03
2022-11-21T11:00:02.826Z,4.65
2022-11-21T11:02:29.408Z,16.20
2022-11-21T11:05:14.464Z,3.10
2022-11-21T11:07:40.894Z,2.30
2022-11-21T11:10:26.894Z,3.22
2022-11-21T11:13:38.819Z,1.10
2022-11-21T11:15:59.544Z,1.38
2022-11-21T11:18:26.473Z,0.90
2022-11-21T11:20:52.886Z,2.22
2022-11-21T11:23:24.021Z,2.88
2022-11-21T11:25:57.772Z,4.40
2022-11-21T11:28:33.357Z,1.08
2022-11-21T11:31:00.452Z,5.72
2022-11-21T11:33:42.515Z,1.50
2022-11-21T11:36:11.560Z,1.00
2022-11-21T11:38:37.932Z,1.00
2022-11-21T11:41:17.834Z,1.60
2022-11-21T11:44:21.799Z,1.00
2022-11-21T11:47:14.040Z,2.00
2022-11-21T11:50:01.227Z,1.70
2022-11-21T11:52:33.913Z,1.55
2022-11-21T11:55:03.370Z,2.70
2022-11-21T11:57:31.308Z,1.50
2022-11-21T12:00:17.913Z,9.27
2022-11-21T12:02:52.090Z,1.27
2022-11-21T12:05:23.345Z,1.45
2022-11-21T12:11:06.683Z,4.22
2022-11-21T12:13:33.868Z,2.42
2022-11-21T12:16:08.646Z,2.65
2022-11-21T12:18:45.270Z,0.98
2022-11-21T12:21:15.678Z,5.63
2022-11-21T12:23:44.857Z,2.05
2022-11-21T12:26:14.268Z,3.70
2022-11-21T12:28:43.684Z,5.15
2022-11-21T12:31:15.328Z,5.47
2022-11-21T12:33:50.136Z,1.83
2022-11-21T12:36:32.355Z,2.03
2022-11-21T12:39:17.355Z,1.27
2022-11-21T12:42:08.626Z,1.10
2022-11-21T12:44:50.452Z,1.30
2022-11-21T12:47:25.924Z,1.90
2022-11-21T12:50:23.252Z,1.40
2022-11-21T12:53:11.707Z,1.45
2022-11-21T12:55:40.038Z,1.77
2022-11-21T12:58:15.386Z,1.45
2022-11-21T13:00:48.194Z,2.45
2022-11-21T13:03:23.487Z,3.25
2022-11-21T13:05:51.884Z,5.80
2022-11-21T13:08:24.443Z,1.42
2022-11-21T13:11:30.011Z,1.80
2022-11-21T13:14:01.794Z,1.55
2022-11-21T13:16:46.091Z,1.27
2022-11-21T13:19:18.750Z,1.67
2022-11-21T13:21:49.500Z,1.17
2022-11-21T13:24:34.354Z,1.40
2022-11-21T13:27:00.817Z,1.13
2022-11-21T13:29:27.425Z,1.20
2022-11-21T13:31:54.109Z,1.67
2022-11-21T13:34:35.118Z,1.65
2022-11-21T13:37:01.745Z,1.40
2022-11-21T13:39:29.555Z,1.10
2022-11-21T13:42:22.520Z,1.33
2022-11-21T13:44:49.277Z,1.10
2022-11-21T13:47:34.500Z,1.10
2022-11-21T13:50:16.094Z,1.20
2022-11-21T13:52:54.252Z,1.50
2022-11-21T13:55:39.427Z,1.40
2022-11-21T13:58:24.682Z,1.10
2022-11-21T14:00:58.499Z,1.30
2022-11-21T14:03:59.119Z,1.50
2022-11-21T14:06:36.527Z,1.55
2022-11-21T14:09:23.264Z,1.50
2022-11-21T14:11:58.190Z,1.67
2022-11-21T14:14:40.175Z,1.27
2022-11-21T14:17:14.602Z,1.60
2022-11-21T14:19:44.328Z,1.50
2022-11-21T14:22:33.588Z,1.70
2022-11-21T14:25:06.112Z,1.77
2022-11-21T14:27:33.432Z,1.38
2022-11-21T14:30:00.779Z,2.17
2022-11-21T14:32:32.220Z,1.85
2022-11-21T14:35:08.932Z,1.63
2022-11-21T14:37:36.319Z,2.10
2022-11-21T14:40:04.470Z,2.60
2022-11-21T14:42:35.439Z,2.47
2022-11-21T14:45:16.776Z,2.60
2022-11-21T14:47:47.915Z,2.20
2022-11-21T14:50:31.061Z,2.67
2022-11-21T14:52:59.529Z,2.80
2022-11-21T14:55:30.763Z,2.55
2022-11-21T14:57:58.945Z,2.40
2022-11-21T15:03:21.111Z,2.67
2022-11-21T15:06:03.945Z,2.58
2022-11-21T15:11:20.783Z,3.28
2022-11-21T15:16:36.245Z,3.20
2022-11-21T15:19:08.364Z,2.33
2022-11-21T15:21:34.950Z,3.17
2022-11-21T15:24:15.853Z,3.15
2022-11-21T15:29:17.719Z,3.60
2022-11-21T15:31:44.181Z,3.17
2022-11-21T15:37:16.672Z,2.55
2022-11-21T15:39:48.313Z,2.70
2022-11-21T15:42:33.257Z,3.92
2022-11-21T15:45:01.228Z,3.33
2022-11-21T15:47:28.652Z,3.28
2022-11-21T15:49:58.156Z,3.05
2022-11-21T15:52:24.633Z,2.95
2022-11-21T15:54:50.999Z,2.50
2022-11-21T15:57:13.499Z,2.70
2022-11-21T15:59:45.332Z,2.42
2022-11-21T16:02:15.112Z,2.80
2022-11-21T16:04:41.831Z,2.22
2022-11-21T16:07:08.402Z,2.60
2022-11-21T16:09:36.105Z,2.15
2022-11-21T16:12:03.138Z,2.58
2022-11-21T16:14:29.678Z,2.28
2022-11-21T16:16:56.397Z,2.28
2022-11-21T16:19:23.266Z,1.95
2022-11-21T16:21:51.249Z,2.60
2022-11-21T16:24:20.927Z,2.42
2022-11-21T16:26:51.398Z,2.70
2022-11-21T16:29:18.776Z,2.50
2022-11-21T16:31:49.248Z,2.47
2022-11-21T16:34:20.348Z,3.38
2022-11-21T16:36:46.898Z,3.20
2022-11-21T16:39:17.956Z,2.10
2022-11-21T16:41:46.102Z,3.65
2022-11-21T16:44:16.664Z,3.33
2022-11-21T16:46:47.195Z,2.80
2022-11-21T16:49:13.747Z,2.50
2022-11-21T16:51:40.191Z,4.07
2022-11-21T16:54:09.276Z,3.50
2022-11-21T16:56:36.187Z,3.97
2022-11-21T16:59:03.248Z,2.80
2022-11-21T17:01:32.852Z,2.83
2022-11-21T17:03:59.547Z,4.55
2022-11-21T17:06:28.541Z,4.60
2022-11-21T17:08:55.097Z,3.22
2022-11-21T17:11:22.666Z,3.40
2022-11-21T17:16:45.766Z,3.40
2022-11-21T17:19:12.668Z,3.25
2022-11-21T17:21:45.363Z,3.80
2022-11-21T17:24:17.117Z,3.90
2022-11-21T17:26:44.742Z,4.38
2022-11-21T17:29:11.138Z,3.70
2022-11-21T17:31:37.479Z,3.35
2022-11-21T17:34:03.874Z,3.67
2022-11-21T17:36:31.090Z,3.83
2022-11-21T17:38:57.526Z,3.40
2022-11-21T17:41:24.268Z,3.45
2022-11-21T17:43:53.395Z,3.38
2022-11-21T17:46:20.135Z,3.97
2022-11-21T17:48:54.842Z,4.80
2022-11-21T17:51:23.316Z,6.10
2022-11-21T17:53:50.455Z,4.88
2022-11-21T17:56:18.738Z,4.47
2022-11-21T17:58:47.188Z,5.07
2022-11-21T18:01:18.795Z,4.93
2022-11-21T18:03:47.095Z,3.95
2022-11-21T18:06:14.357Z,4.28
2022-11-21T18:08:42.198Z,4.45
2022-11-21T18:11:09.343Z,4.35
2022-11-21T18:13:36.218Z,3.97
2022-11-21T18:16:04.533Z,3.55
2022-11-21T18:18:31.452Z,3.40
2022-11-21T18:21:04.957Z,3.42
2022-11-21T18:23:31.721Z,3.80
2022-11-21T18:26:02.440Z,4.78
2022-11-21T18:28:28.764Z,3.50
2022-11-21T18:31:06.627Z,3.95
2022-11-21T18:33:33.461Z,3.33
2022-11-21T18:36:02.290Z,3.03
2022-11-21T18:38:48.457Z,3.72
2022-11-21T18:41:16.616Z,3.65
2022-11-21T18:43:43.712Z,4.78
2022-11-21T18:46:11.536Z,5.65
2022-11-21T18:49:00.951Z,5.70
2022-11-21T18:51:25.731Z,4.72
2022-11-21T18:53:52.810Z,4.28
2022-11-21T18:56:19.612Z,4.47
2022-11-21T18:58:46.982Z,4.80
2022-11-21T19:01:14.890Z,4.10
2022-11-21T19:03:41.263Z,4.43
2022-11-21T19:06:08.304Z,5.90
2022-11-21T19:08:34.808Z,5.90
2022-11-21T19:11:04.957Z,5.53
2022-11-21T19:13:31.889Z,5.15
2022-11-21T19:16:01.313Z,5.13
2022-11-21T19:18:30.835Z,4.25
2022-11-21T19:21:00.239Z,4.43
2022-11-21T19:23:26.737Z,5.30
2022-11-21T19:25:53.539Z,4.63
2022-11-21T19:28:19.884Z,6.53
2022-11-21T19:30:46.208Z,5.47
2022-11-21T19:33:14.178Z,5.30
2022-11-21T19:35:40.511Z,6.32
2022-11-21T19:38:07.064Z,5.25
2022-11-21T19:40:53.427Z,5.30
2022-11-21T19:43:19.776Z,5.90
2022-11-21T19:45:46.169Z,6.95
2022-11-21T19:48:12.480Z,5.60
2022-11-21T19:50:38.786Z,5.88
2022-11-21T19:53:05.148Z,4.88
2022-11-21T19:55:31.563Z,5.22
2022-11-21T19:57:57.940Z,5.95
2022-11-21T20:00:25.451Z,4.47
2022-11-21T20:02:52.134Z,5.28
2022-11-21T20:05:18.545Z,6.10
2022-11-21T20:07:44.997Z,4.97
2022-11-21T20:10:11.451Z,5.80
2022-11-21T20:12:37.793Z,5.53
2022-11-21T20:15:04.243Z,4.32
2022-11-21T20:17:30.551Z,4.40
2022-11-21T20:19:58.706Z,4.78
2022-11-21T20:22:28.258Z,5.25
2022-11-21T20:24:54.649Z,5.95
2022-11-21T20:27:21.016Z,4.78
2022-11-21T20:29:47.365Z,5.28
2022-11-21T20:32:13.719Z,5.72
2022-11-21T20:34:40.100Z,4.60
2022-11-21T20:37:06.444Z,5.90
2022-11-21T20:39:32.840Z,5.57
2022-11-21T20:42:02.263Z,4.80
2022-11-21T20:45:25.783Z,5.03
2022-11-21T20:47:16.685Z,5.45
2022-11-21T20:49:43.277Z,5.72
2022-11-21T20:53:43.989Z,5.43
2022-11-21T20:54:55.949Z,5.97
2022-11-21T20:57:22.489Z,6.05
2022-11-21T20:59:48.981Z,5.50
2022-11-21T21:02:15.765Z,5.80
2022-11-21T21:04:42.216Z,5.43
2022-11-21T21:07:08.726Z,5.80
2022-11-21T21:09:35.143Z,4.63
2022-11-21T21:12:03.570Z,5.68
2022-11-21T21:14:29.922Z,5.57
2022-11-21T21:16:56.318Z,4.05
2022-11-21T21:19:22.938Z,4.20
2022-11-21T21:21:49.460Z,4.43
2022-11-21T21:24:16.024Z,5.22
2022-11-21T21:26:44.086Z,5.20
2022-11-21T21:29:14.249Z,4.72
2022-11-21T21:31:45.240Z,5.05
2022-11-21T21:34:16.405Z,4.50
2022-11-21T21:36:42.929Z,4.78
2022-11-21T21:39:09.317Z,5.40
2022-11-21T21:41:39.754Z,4.38
2022-11-21T21:44:06.285Z,4.30
2022-11-21T21:46:32.719Z,4.47
2022-11-21T21:48:59.163Z,5.03
2022-11-21T21:51:29.615Z,3.90
2022-11-21T21:53:57.205Z,4.20
2022-11-21T21:56:26.885Z,5.10
2022-11-21T21:58:53.265Z,4.80
2022-11-21T22:01:21.173Z,4.60
2022-11-21T22:03:48.135Z,4.45
2022-11-21T22:06:15.673Z,3.85
2022-11-21T22:08:42.530Z,3.85
2022-11-21T22:11:13.321Z,4.43
2022-11-21T22:16:06.535Z,3.70
2022-11-21T22:18:33.091Z,4.47
2022-11-21T22:20:59.504Z,4.47
2022-11-21T22:23:26.373Z,4.35
2022-11-21T22:25:56.377Z,4.70
2022-11-21T22:28:25.663Z,4.68
2022-11-21T22:30:55.571Z,4.45
2022-11-21T22:33:22.424Z,5.70
2022-11-21T22:35:48.860Z,4.95
2022-11-21T22:38:15.739Z,4.10
2022-11-21T22:40:42.266Z,4.30
2022-11-21T22:43:08.633Z,4.43
2022-11-21T22:45:35.261Z,3.92
2022-11-21T22:48:02.131Z,4.28
2022-11-21T22:50:28.551Z,4.40
2022-11-21T22:52:55.163Z,4.50
2022-11-21T22:55:21.651Z,4.20
2022-11-21T22:57:48.123Z,4.38
2022-11-21T23:00:15.173Z,4.05
2022-11-21T23:02:41.551Z,4.13
2022-11-21T23:05:10.173Z,4.07
2022-11-21T23:07:36.597Z,4.35
2022-11-21T23:10:03.278Z,5.28
2022-11-21T23:12:30.072Z,4.55
2022-11-21T23:14:56.402Z,4.75
2022-11-21T23:17:22.816Z,4.53
2022-11-21T23:19:49.160Z,4.55
2022-11-21T23:22:15.747Z,4.50
2022-11-21T23:24:42.096Z,4.50
2022-11-21T23:27:08.423Z,3.75
2022-11-21T23:29:34.789Z,3.53
2022-11-21T23:32:01.179Z,3.83
2022-11-21T23:34:27.620Z,3.97
2022-11-21T23:36:53.957Z,4.20
2022-11-21T23:39:20.489Z,3.50
2022-11-21T23:41:46.987Z,3.60
2022-11-21T23:44:13.512Z,3.38
2022-11-21T23:46:41.772Z,3.70
2022-11-21T23:49:08.146Z,4.15
2022-11-21T23:51:34.537Z,3.35
2022-11-21T23:54:00.940Z,3.97
2022-11-21T23:56:27.330Z,4.45
2022-11-21T23:58:53.697Z,4.70
